Worland Municipal Airport Worland US
ICAO: KWRL
IATA: WRL
Category: Medium
Scheduled Services: Yes

Elevation: 4227 ft
TransAlt. 18000 ft.

Airport Communications:
ASOS:135.475
SALT LAKE CITY CNTR:133.25
CASPER RDO:122.4
CTAF/UNICOM:123.05

KWRL Zoom In..

If you have problems with the map follow the link
https://www.worldairports.se/pages/airport.php?
ICAO=KWRL

Runways:

(A) RW 04 length 2241 ft width 60 ft
---- / hdg 44

(B) RW 10 length 2501 ft width 60 ft
---- / hdg 106

(C) RW 16 length 7001 ft width 100 ft
---- / hdg 162

(D) RW 22 length 2241 ft width 60 ft
---- / hdg 224

(E) RW 28 length 2501 ft width 60 ft
---- / hdg 286

(F) RW 34 length 7001 ft width 100 ft
---- / hdg 342

Location; KWRL
Day. 27 / Time. 22.53 Zulu
* Altimeter: 30.03
* Temperature: 02° c. 35.6°f.
* Wind from: 230° Speed 06 kn.
Dewpoint: -01° c.
Visibility: 10 Statute Miles.
Clouds: Few 6000 ft.
Clouds: Few 8000 ft.
Clouds: Overcast 11000 ft.

KWRL 272253Z AUTO 23006KT 10SM FEW060 FEW080 OVC110 02/M01 A3003 RMK AO2 SLP198 T00171006


Wind From 230°
Speed 06 kn.

 
 
jpsmedia worldairports.se 2020   terms of use